sensor_id;sensor_type;location;lat;lon;timestamp;P1;durP1;ratioP1;P2;durP2;ratioP2
12052;SDS011;6087;48.982;12.064;2023-02-05T00:01:28;7.53;;;5.63;;
12052;SDS011;6087;48.982;12.064;2023-02-05T00:03:55;6.90;;;4.90;;
12052;SDS011;6087;48.982;12.064;2023-02-05T00:06:23;8.97;;;5.93;;
12052;SDS011;6087;48.982;12.064;2023-02-05T00:08:51;5.60;;;4.80;;
12052;SDS011;6087;48.982;12.064;2023-02-05T00:11:18;5.33;;;4.13;;
12052;SDS011;6087;48.982;12.064;2023-02-05T00:13:45;5.63;;;4.53;;
12052;SDS011;6087;48.982;12.064;2023-02-05T00:16:12;6.47;;;4.27;;
12052;SDS011;6087;48.982;12.064;2023-02-05T00:18:41;5.63;;;4.37;;
12052;SDS011;6087;48.982;12.064;2023-02-05T00:21:08;7.37;;;5.20;;
12052;SDS011;6087;48.982;12.064;2023-02-05T00:23:37;8.73;;;5.30;;
12052;SDS011;6087;48.982;12.064;2023-02-05T00:26:05;6.63;;;4.73;;
12052;SDS011;6087;48.982;12.064;2023-02-05T00:28:33;7.47;;;4.60;;
12052;SDS011;6087;48.982;12.064;2023-02-05T00:31:05;7.83;;;4.83;;
12052;SDS011;6087;48.982;12.064;2023-02-05T00:33:33;6.43;;;4.40;;
12052;SDS011;6087;48.982;12.064;2023-02-05T00:36:00;6.07;;;4.40;;
12052;SDS011;6087;48.982;12.064;2023-02-05T00:38:27;7.13;;;4.43;;
12052;SDS011;6087;48.982;12.064;2023-02-05T00:40:55;6.73;;;4.33;;
12052;SDS011;6087;48.982;12.064;2023-02-05T00:43:22;5.77;;;4.23;;
12052;SDS011;6087;48.982;12.064;2023-02-05T00:45:49;6.40;;;4.00;;
12052;SDS011;6087;48.982;12.064;2023-02-05T00:48:16;5.90;;;4.07;;
12052;SDS011;6087;48.982;12.064;2023-02-05T00:50:43;6.10;;;3.83;;
12052;SDS011;6087;48.982;12.064;2023-02-05T00:53:12;4.50;;;3.53;;
12052;SDS011;6087;48.982;12.064;2023-02-05T00:55:39;4.43;;;3.50;;
12052;SDS011;6087;48.982;12.064;2023-02-05T00:58:07;3.20;;;2.90;;
12052;SDS011;6087;48.982;12.064;2023-02-05T01:00:34;5.57;;;3.20;;
12052;SDS011;6087;48.982;12.064;2023-02-05T01:03:01;5.13;;;4.00;;
12052;SDS011;6087;48.982;12.064;2023-02-05T01:05:29;5.60;;;3.70;;
12052;SDS011;6087;48.982;12.064;2023-02-05T01:07:56;5.77;;;3.60;;
12052;SDS011;6087;48.982;12.064;2023-02-05T01:10:23;7.03;;;3.40;;
12052;SDS011;6087;48.982;12.064;2023-02-05T01:12:49;5.53;;;3.63;;
12052;SDS011;6087;48.982;12.064;2023-02-05T01:15:18;6.47;;;3.73;;
12052;SDS011;6087;48.982;12.064;2023-02-05T01:17:46;5.07;;;3.60;;
12052;SDS011;6087;48.982;12.064;2023-02-05T01:20:13;5.53;;;3.77;;
12052;SDS011;6087;48.982;12.064;2023-02-05T01:22:41;4.57;;;3.50;;
12052;SDS011;6087;48.982;12.064;2023-02-05T01:25:08;4.90;;;4.00;;
12052;SDS011;6087;48.982;12.064;2023-02-05T01:27:35;4.87;;;3.40;;
12052;SDS011;6087;48.982;12.064;2023-02-05T01:30:03;7.17;;;3.10;;
12052;SDS011;6087;48.982;12.064;2023-02-05T01:32:33;3.40;;;2.90;;
12052;SDS011;6087;48.982;12.064;2023-02-05T01:35:00;5.07;;;3.27;;
12052;SDS011;6087;48.982;12.064;2023-02-05T01:37:27;3.60;;;2.97;;
12052;SDS011;6087;48.982;12.064;2023-02-05T01:39:53;5.00;;;3.43;;
12052;SDS011;6087;48.982;12.064;2023-02-05T01:42:21;3.73;;;2.93;;
12052;SDS011;6087;48.982;12.064;2023-02-05T01:47:58;5.30;;;3.60;;
12052;SDS011;6087;48.982;12.064;2023-02-05T01:50:27;4.47;;;3.67;;
12052;SDS011;6087;48.982;12.064;2023-02-05T01:52:58;4.13;;;3.10;;
12052;SDS011;6087;48.982;12.064;2023-02-05T01:55:30;3.20;;;2.80;;
12052;SDS011;6087;48.982;12.064;2023-02-05T01:57:59;3.70;;;3.13;;
12052;SDS011;6087;48.982;12.064;2023-02-05T02:00:27;4.97;;;3.03;;
12052;SDS011;6087;48.982;12.064;2023-02-05T02:02:54;2.80;;;2.60;;
12052;SDS011;6087;48.982;12.064;2023-02-05T02:05:23;3.37;;;3.07;;
12052;SDS011;6087;48.982;12.064;2023-02-05T02:07:50;5.60;;;3.60;;
12052;SDS011;6087;48.982;12.064;2023-02-05T02:10:17;4.57;;;2.77;;
12052;SDS011;6087;48.982;12.064;2023-02-05T02:12:45;3.47;;;2.83;;
12052;SDS011;6087;48.982;12.064;2023-02-05T02:15:15;5.37;;;3.33;;
12052;SDS011;6087;48.982;12.064;2023-02-05T02:17:44;10.37;;;3.70;;
12052;SDS011;6087;48.982;12.064;2023-02-05T02:20:15;9.67;;;4.67;;
12052;SDS011;6087;48.982;12.064;2023-02-05T02:22:51;6.03;;;3.00;;
12052;SDS011;6087;48.982;12.064;2023-02-05T02:28:32;4.60;;;3.30;;
12052;SDS011;6087;48.982;12.064;2023-02-05T02:31:03;4.23;;;3.07;;
12052;SDS011;6087;48.982;12.064;2023-02-05T02:33:38;3.40;;;2.37;;
12052;SDS011;6087;48.982;12.064;2023-02-05T02:36:11;3.63;;;3.23;;
12052;SDS011;6087;48.982;12.064;2023-02-05T02:38:43;6.43;;;3.07;;
12052;SDS011;6087;48.982;12.064;2023-02-05T02:41:18;5.93;;;2.90;;
12052;SDS011;6087;48.982;12.064;2023-02-05T02:43:51;4.47;;;2.90;;
12052;SDS011;6087;48.982;12.064;2023-02-05T02:46:23;4.30;;;3.23;;
12052;SDS011;6087;48.982;12.064;2023-02-05T02:48:57;6.53;;;3.10;;
12052;SDS011;6087;48.982;12.064;2023-02-05T02:51:29;3.27;;;3.03;;
12052;SDS011;6087;48.982;12.064;2023-02-05T02:53:59;3.97;;;2.90;;
12052;SDS011;6087;48.982;12.064;2023-02-05T02:56:31;4.67;;;2.30;;
12052;SDS011;6087;48.982;12.064;2023-02-05T02:59:04;2.93;;;2.73;;
12052;SDS011;6087;48.982;12.064;2023-02-05T03:01:36;2.97;;;2.50;;
12052;SDS011;6087;48.982;12.064;2023-02-05T03:04:06;2.83;;;2.50;;
12052;SDS011;6087;48.982;12.064;2023-02-05T03:06:36;3.20;;;2.20;;
12052;SDS011;6087;48.982;12.064;2023-02-05T03:09:06;2.57;;;2.37;;
12052;SDS011;6087;48.982;12.064;2023-02-05T03:11:37;3.20;;;2.50;;
12052;SDS011;6087;48.982;12.064;2023-02-05T03:14:06;3.30;;;2.73;;
12052;SDS011;6087;48.982;12.064;2023-02-05T03:16:33;2.30;;;2.10;;
12052;SDS011;6087;48.982;12.064;2023-02-05T03:19:01;3.57;;;2.27;;
12052;SDS011;6087;48.982;12.064;2023-02-05T03:21:31;2.63;;;2.20;;
12052;SDS011;6087;48.982;12.064;2023-02-05T03:24:02;3.67;;;2.40;;
12052;SDS011;6087;48.982;12.064;2023-02-05T03:26:31;2.43;;;1.90;;
12052;SDS011;6087;48.982;12.064;2023-02-05T03:29:01;2.23;;;2.00;;
12052;SDS011;6087;48.982;12.064;2023-02-05T03:31:34;2.70;;;2.50;;
12052;SDS011;6087;48.982;12.064;2023-02-05T03:34:13;5.10;;;3.50;;
12052;SDS011;6087;48.982;12.064;2023-02-05T03:36:51;3.90;;;3.00;;
12052;SDS011;6087;48.982;12.064;2023-02-05T03:39:26;4.57;;;3.37;;
12052;SDS011;6087;48.982;12.064;2023-02-05T03:42:02;3.73;;;2.93;;
12052;SDS011;6087;48.982;12.064;2023-02-05T03:44:40;3.67;;;3.20;;
12052;SDS011;6087;48.982;12.064;2023-02-05T03:47:22;4.27;;;3.13;;
12052;SDS011;6087;48.982;12.064;2023-02-05T03:50:04;3.70;;;2.93;;
12052;SDS011;6087;48.982;12.064;2023-02-05T03:52:40;5.47;;;2.87;;
12052;SDS011;6087;48.982;12.064;2023-02-05T03:55:12;4.10;;;3.30;;
12052;SDS011;6087;48.982;12.064;2023-02-05T03:57:44;4.13;;;2.70;;
12052;SDS011;6087;48.982;12.064;2023-02-05T04:00:17;4.20;;;3.20;;
12052;SDS011;6087;48.982;12.064;2023-02-05T04:02:46;6.43;;;3.53;;
12052;SDS011;6087;48.982;12.064;2023-02-05T04:05:13;3.20;;;2.93;;
12052;SDS011;6087;48.982;12.064;2023-02-05T04:07:40;3.47;;;3.17;;
12052;SDS011;6087;48.982;12.064;2023-02-05T04:10:08;4.83;;;3.50;;
12052;SDS011;6087;48.982;12.064;2023-02-05T04:12:35;4.10;;;2.70;;
12052;SDS011;6087;48.982;12.064;2023-02-05T04:15:02;3.17;;;2.73;;
12052;SDS011;6087;48.982;12.064;2023-02-05T04:17:33;3.30;;;2.57;;
12052;SDS011;6087;48.982;12.064;2023-02-05T04:20:02;6.33;;;2.87;;
12052;SDS011;6087;48.982;12.064;2023-02-05T04:22:29;3.20;;;2.67;;
12052;SDS011;6087;48.982;12.064;2023-02-05T04:24:59;2.67;;;2.40;;
12052;SDS011;6087;48.982;12.064;2023-02-05T04:27:26;3.27;;;2.57;;
12052;SDS011;6087;48.982;12.064;2023-02-05T04:29:56;2.90;;;2.63;;
12052;SDS011;6087;48.982;12.064;2023-02-05T04:32:23;3.20;;;2.90;;
12052;SDS011;6087;48.982;12.064;2023-02-05T04:34:51;3.53;;;2.50;;
12052;SDS011;6087;48.982;12.064;2023-02-05T04:37:19;2.83;;;2.50;;
12052;SDS011;6087;48.982;12.064;2023-02-05T04:39:46;3.50;;;2.57;;
12052;SDS011;6087;48.982;12.064;2023-02-05T04:42:16;3.07;;;2.30;;
12052;SDS011;6087;48.982;12.064;2023-02-05T04:44:43;3.43;;;2.50;;
12052;SDS011;6087;48.982;12.064;2023-02-05T04:47:10;3.80;;;2.67;;
12052;SDS011;6087;48.982;12.064;2023-02-05T04:49:38;3.30;;;2.50;;
12052;SDS011;6087;48.982;12.064;2023-02-05T04:52:05;4.00;;;2.80;;
12052;SDS011;6087;48.982;12.064;2023-02-05T04:54:35;3.17;;;2.30;;
12052;SDS011;6087;48.982;12.064;2023-02-05T04:57:02;3.13;;;2.50;;
12052;SDS011;6087;48.982;12.064;2023-02-05T04:59:29;2.57;;;2.00;;
12052;SDS011;6087;48.982;12.064;2023-02-05T05:01:56;6.03;;;2.87;;
12052;SDS011;6087;48.982;12.064;2023-02-05T05:04:24;2.70;;;2.50;;
12052;SDS011;6087;48.982;12.064;2023-02-05T05:06:51;4.90;;;3.50;;
12052;SDS011;6087;48.982;12.064;2023-02-05T05:09:18;4.43;;;3.37;;
12052;SDS011;6087;48.982;12.064;2023-02-05T05:11:50;3.17;;;2.17;;
12052;SDS011;6087;48.982;12.064;2023-02-05T05:14:18;2.77;;;2.47;;
12052;SDS011;6087;48.982;12.064;2023-02-05T05:16:45;3.00;;;2.43;;
12052;SDS011;6087;48.982;12.064;2023-02-05T05:19:16;3.03;;;2.83;;
12052;SDS011;6087;48.982;12.064;2023-02-05T05:21:43;2.83;;;2.27;;
12052;SDS011;6087;48.982;12.064;2023-02-05T05:24:10;2.97;;;2.40;;
12052;SDS011;6087;48.982;12.064;2023-02-05T05:26:37;2.33;;;2.13;;
12052;SDS011;6087;48.982;12.064;2023-02-05T05:29:10;2.97;;;2.30;;
12052;SDS011;6087;48.982;12.064;2023-02-05T05:31:38;3.70;;;2.97;;
12052;SDS011;6087;48.982;12.064;2023-02-05T05:34:05;2.87;;;2.53;;
12052;SDS011;6087;48.982;12.064;2023-02-05T05:36:35;2.83;;;2.63;;
12052;SDS011;6087;48.982;12.064;2023-02-05T05:39:04;2.67;;;2.47;;
12052;SDS011;6087;48.982;12.064;2023-02-05T05:41:44;2.37;;;2.20;;
12052;SDS011;6087;48.982;12.064;2023-02-05T05:44:30;3.77;;;2.97;;
12052;SDS011;6087;48.982;12.064;2023-02-05T05:46:57;4.07;;;3.43;;
12052;SDS011;6087;48.982;12.064;2023-02-05T05:49:24;3.53;;;2.83;;
12052;SDS011;6087;48.982;12.064;2023-02-05T05:51:51;2.80;;;2.60;;
12052;SDS011;6087;48.982;12.064;2023-02-05T05:54:18;3.20;;;2.67;;
12052;SDS011;6087;48.982;12.064;2023-02-05T05:56:45;2.37;;;2.17;;
12052;SDS011;6087;48.982;12.064;2023-02-05T05:59:15;3.13;;;2.50;;
12052;SDS011;6087;48.982;12.064;2023-02-05T06:01:44;3.53;;;2.97;;
12052;SDS011;6087;48.982;12.064;2023-02-05T06:04:11;5.17;;;4.17;;
12052;SDS011;6087;48.982;12.064;2023-02-05T06:06:38;2.93;;;2.63;;
12052;SDS011;6087;48.982;12.064;2023-02-05T06:09:05;3.67;;;2.90;;
12052;SDS011;6087;48.982;12.064;2023-02-05T06:11:32;3.93;;;3.40;;
12052;SDS011;6087;48.982;12.064;2023-02-05T06:13:59;4.50;;;3.67;;
12052;SDS011;6087;48.982;12.064;2023-02-05T06:16:27;5.50;;;3.83;;
12052;SDS011;6087;48.982;12.064;2023-02-05T06:18:55;2.77;;;2.57;;
12052;SDS011;6087;48.982;12.064;2023-02-05T06:21:23;3.73;;;2.90;;
12052;SDS011;6087;48.982;12.064;2023-02-05T06:23:50;3.57;;;2.77;;
12052;SDS011;6087;48.982;12.064;2023-02-05T06:26:17;3.63;;;3.20;;
12052;SDS011;6087;48.982;12.064;2023-02-05T06:28:46;5.07;;;4.57;;
12052;SDS011;6087;48.982;12.064;2023-02-05T06:31:13;8.23;;;6.33;;
12052;SDS011;6087;48.982;12.064;2023-02-05T06:33:41;6.03;;;4.27;;
12052;SDS011;6087;48.982;12.064;2023-02-05T06:36:12;6.07;;;3.67;;
12052;SDS011;6087;48.982;12.064;2023-02-05T06:38:39;4.53;;;3.63;;
12052;SDS011;6087;48.982;12.064;2023-02-05T06:41:08;6.63;;;3.63;;
12052;SDS011;6087;48.982;12.064;2023-02-05T06:43:36;4.27;;;3.37;;
12052;SDS011;6087;48.982;12.064;2023-02-05T06:46:03;4.87;;;3.37;;
12052;SDS011;6087;48.982;12.064;2023-02-05T06:48:30;5.23;;;3.30;;
12052;SDS011;6087;48.982;12.064;2023-02-05T06:50:57;4.00;;;3.60;;
12052;SDS011;6087;48.982;12.064;2023-02-05T06:53:26;5.50;;;4.03;;
12052;SDS011;6087;48.982;12.064;2023-02-05T06:55:56;5.27;;;3.77;;
12052;SDS011;6087;48.982;12.064;2023-02-05T06:58:24;4.80;;;3.40;;
12052;SDS011;6087;48.982;12.064;2023-02-05T07:00:51;3.93;;;3.47;;
12052;SDS011;6087;48.982;12.064;2023-02-05T07:03:21;4.30;;;3.13;;
12052;SDS011;6087;48.982;12.064;2023-02-05T07:05:48;4.03;;;3.67;;
12052;SDS011;6087;48.982;12.064;2023-02-05T07:08:15;3.97;;;3.50;;
12052;SDS011;6087;48.982;12.064;2023-02-05T07:10:44;3.23;;;3.03;;
12052;SDS011;6087;48.982;12.064;2023-02-05T07:13:11;4.80;;;3.57;;
12052;SDS011;6087;48.982;12.064;2023-02-05T07:15:39;4.93;;;3.40;;
12052;SDS011;6087;48.982;12.064;2023-02-05T07:18:09;6.10;;;3.33;;
12052;SDS011;6087;48.982;12.064;2023-02-05T07:20:36;5.00;;;3.67;;
12052;SDS011;6087;48.982;12.064;2023-02-05T07:23:04;4.03;;;3.53;;
12052;SDS011;6087;48.982;12.064;2023-02-05T07:25:32;3.40;;;3.00;;
12052;SDS011;6087;48.982;12.064;2023-02-05T07:28:03;3.57;;;3.27;;
12052;SDS011;6087;48.982;12.064;2023-02-05T07:30:31;6.97;;;4.10;;
12052;SDS011;6087;48.982;12.064;2023-02-05T07:32:58;5.00;;;4.37;;
12052;SDS011;6087;48.982;12.064;2023-02-05T07:35:27;6.23;;;4.53;;
12052;SDS011;6087;48.982;12.064;2023-02-05T07:37:56;5.93;;;4.60;;
12052;SDS011;6087;48.982;12.064;2023-02-05T07:40:23;4.40;;;4.00;;
12052;SDS011;6087;48.982;12.064;2023-02-05T07:42:54;5.47;;;4.23;;
12052;SDS011;6087;48.982;12.064;2023-02-05T07:45:24;4.30;;;3.83;;
12052;SDS011;6087;48.982;12.064;2023-02-05T07:47:53;5.90;;;3.77;;
12052;SDS011;6087;48.982;12.064;2023-02-05T07:50:20;5.63;;;4.53;;
12052;SDS011;6087;48.982;12.064;2023-02-05T07:52:47;5.90;;;4.30;;
12052;SDS011;6087;48.982;12.064;2023-02-05T07:55:14;10.50;;;7.43;;
12052;SDS011;6087;48.982;12.064;2023-02-05T07:57:41;14.10;;;7.50;;
12052;SDS011;6087;48.982;12.064;2023-02-05T08:00:09;8.63;;;6.57;;
12052;SDS011;6087;48.982;12.064;2023-02-05T08:02:38;10.10;;;6.33;;
12052;SDS011;6087;48.982;12.064;2023-02-05T08:05:08;5.63;;;4.70;;
12052;SDS011;6087;48.982;12.064;2023-02-05T08:07:35;7.30;;;5.83;;
12052;SDS011;6087;48.982;12.064;2023-02-05T08:10:03;6.70;;;5.50;;
12052;SDS011;6087;48.982;12.064;2023-02-05T08:12:31;6.37;;;4.70;;
12052;SDS011;6087;48.982;12.064;2023-02-05T08:14:58;8.33;;;5.17;;
12052;SDS011;6087;48.982;12.064;2023-02-05T08:17:25;4.97;;;4.47;;
12052;SDS011;6087;48.982;12.064;2023-02-05T08:19:54;5.90;;;4.60;;
12052;SDS011;6087;48.982;12.064;2023-02-05T08:22:22;6.40;;;4.93;;
12052;SDS011;6087;48.982;12.064;2023-02-05T08:24:49;6.60;;;5.43;;
12052;SDS011;6087;48.982;12.064;2023-02-05T08:27:16;6.47;;;4.70;;
12052;SDS011;6087;48.982;12.064;2023-02-05T08:29:46;7.40;;;5.33;;
12052;SDS011;6087;48.982;12.064;2023-02-05T08:32:14;6.70;;;5.17;;
12052;SDS011;6087;48.982;12.064;2023-02-05T08:34:41;6.40;;;4.83;;
12052;SDS011;6087;48.982;12.064;2023-02-05T08:37:09;7.13;;;5.30;;
12052;SDS011;6087;48.982;12.064;2023-02-05T08:39:36;7.17;;;4.40;;
12052;SDS011;6087;48.982;12.064;2023-02-05T08:42:03;4.97;;;4.10;;
12052;SDS011;6087;48.982;12.064;2023-02-05T08:44:30;5.13;;;4.33;;
12052;SDS011;6087;48.982;12.064;2023-02-05T08:46:57;6.60;;;5.43;;
12052;SDS011;6087;48.982;12.064;2023-02-05T08:49:24;5.90;;;5.03;;
12052;SDS011;6087;48.982;12.064;2023-02-05T08:51:51;6.83;;;5.97;;
12052;SDS011;6087;48.982;12.064;2023-02-05T08:54:20;7.97;;;6.27;;
12052;SDS011;6087;48.982;12.064;2023-02-05T08:56:47;10.00;;;6.50;;
12052;SDS011;6087;48.982;12.064;2023-02-05T08:59:15;9.50;;;5.63;;
12052;SDS011;6087;48.982;12.064;2023-02-05T09:01:42;5.27;;;4.37;;
12052;SDS011;6087;48.982;12.064;2023-02-05T09:04:11;4.70;;;4.10;;
12052;SDS011;6087;48.982;12.064;2023-02-05T09:06:39;4.47;;;3.60;;
12052;SDS011;6087;48.982;12.064;2023-02-05T09:09:06;5.13;;;3.70;;
12052;SDS011;6087;48.982;12.064;2023-02-05T09:11:35;4.73;;;3.70;;
12052;SDS011;6087;48.982;12.064;2023-02-05T09:14:03;4.63;;;3.87;;
12052;SDS011;6087;48.982;12.064;2023-02-05T09:16:30;4.20;;;3.57;;
12052;SDS011;6087;48.982;12.064;2023-02-05T09:18:58;4.13;;;3.77;;
12052;SDS011;6087;48.982;12.064;2023-02-05T09:21:25;4.77;;;3.60;;
12052;SDS011;6087;48.982;12.064;2023-02-05T09:23:53;4.20;;;3.80;;
12052;SDS011;6087;48.982;12.064;2023-02-05T09:26:21;6.03;;;4.37;;
12052;SDS011;6087;48.982;12.064;2023-02-05T09:28:50;4.90;;;4.50;;
12052;SDS011;6087;48.982;12.064;2023-02-05T09:31:17;4.53;;;4.10;;
12052;SDS011;6087;48.982;12.064;2023-02-05T09:33:45;5.93;;;4.33;;
12052;SDS011;6087;48.982;12.064;2023-02-05T09:36:13;5.23;;;3.90;;
12052;SDS011;6087;48.982;12.064;2023-02-05T09:38:42;5.23;;;4.30;;
12052;SDS011;6087;48.982;12.064;2023-02-05T09:41:13;4.97;;;3.87;;
12052;SDS011;6087;48.982;12.064;2023-02-05T09:43:48;3.57;;;3.27;;
12052;SDS011;6087;48.982;12.064;2023-02-05T09:46:24;4.10;;;3.43;;
12052;SDS011;6087;48.982;12.064;2023-02-05T09:48:58;4.73;;;3.63;;
12052;SDS011;6087;48.982;12.064;2023-02-05T09:51:31;4.20;;;3.73;;
12052;SDS011;6087;48.982;12.064;2023-02-05T09:54:02;3.97;;;3.30;;
12052;SDS011;6087;48.982;12.064;2023-02-05T09:56:38;4.50;;;3.30;;
12052;SDS011;6087;48.982;12.064;2023-02-05T09:59:08;4.40;;;3.50;;
12052;SDS011;6087;48.982;12.064;2023-02-05T10:01:40;3.70;;;2.80;;
12052;SDS011;6087;48.982;12.064;2023-02-05T10:04:11;3.60;;;3.30;;
12052;SDS011;6087;48.982;12.064;2023-02-05T10:06:42;5.37;;;3.57;;
12052;SDS011;6087;48.982;12.064;2023-02-05T10:09:28;4.47;;;3.70;;
12052;SDS011;6087;48.982;12.064;2023-02-05T10:12:18;4.80;;;4.13;;
12052;SDS011;6087;48.982;12.064;2023-02-05T10:15:00;4.10;;;3.70;;
12052;SDS011;6087;48.982;12.064;2023-02-05T10:17:41;6.20;;;3.80;;
12052;SDS011;6087;48.982;12.064;2023-02-05T10:20:27;3.93;;;3.53;;
12052;SDS011;6087;48.982;12.064;2023-02-05T10:23:10;5.03;;;3.13;;
12052;SDS011;6087;48.982;12.064;2023-02-05T10:25:44;4.13;;;3.20;;
12052;SDS011;6087;48.982;12.064;2023-02-05T10:28:23;3.63;;;3.30;;
12052;SDS011;6087;48.982;12.064;2023-02-05T10:31:00;4.10;;;3.60;;
12052;SDS011;6087;48.982;12.064;2023-02-05T10:33:37;5.63;;;3.53;;
12052;SDS011;6087;48.982;12.064;2023-02-05T10:36:09;5.23;;;3.57;;
12052;SDS011;6087;48.982;12.064;2023-02-05T10:38:39;5.90;;;3.83;;
12052;SDS011;6087;48.982;12.064;2023-02-05T10:41:12;4.13;;;3.27;;
12052;SDS011;6087;48.982;12.064;2023-02-05T10:43:42;4.40;;;3.30;;
12052;SDS011;6087;48.982;12.064;2023-02-05T10:46:15;3.87;;;3.57;;
12052;SDS011;6087;48.982;12.064;2023-02-05T10:48:43;5.07;;;3.47;;
12052;SDS011;6087;48.982;12.064;2023-02-05T10:51:15;3.30;;;3.00;;
12052;SDS011;6087;48.982;12.064;2023-02-05T10:53:48;3.50;;;3.17;;
12052;SDS011;6087;48.982;12.064;2023-02-05T10:56:16;3.73;;;3.10;;
12052;SDS011;6087;48.982;12.064;2023-02-05T10:58:44;5.03;;;3.73;;
12052;SDS011;6087;48.982;12.064;2023-02-05T11:01:18;4.17;;;2.90;;
12052;SDS011;6087;48.982;12.064;2023-02-05T11:03:48;3.50;;;3.20;;
12052;SDS011;6087;48.982;12.064;2023-02-05T11:06:19;4.53;;;2.87;;
12052;SDS011;6087;48.982;12.064;2023-02-05T11:08:48;3.70;;;3.17;;
12052;SDS011;6087;48.982;12.064;2023-02-05T11:11:19;4.53;;;3.40;;
12052;SDS011;6087;48.982;12.064;2023-02-05T11:13:50;3.30;;;3.00;;
12052;SDS011;6087;48.982;12.064;2023-02-05T11:16:21;4.57;;;3.17;;
12052;SDS011;6087;48.982;12.064;2023-02-05T11:18:59;4.13;;;3.30;;
12052;SDS011;6087;48.982;12.064;2023-02-05T11:24:23;4.57;;;3.20;;
12052;SDS011;6087;48.982;12.064;2023-02-05T11:27:09;5.93;;;3.70;;
12052;SDS011;6087;48.982;12.064;2023-02-05T11:29:51;3.40;;;3.10;;
12052;SDS011;6087;48.982;12.064;2023-02-05T11:32:20;3.83;;;3.13;;
12052;SDS011;6087;48.982;12.064;2023-02-05T11:35:06;3.97;;;3.10;;
12052;SDS011;6087;48.982;12.064;2023-02-05T11:37:41;4.47;;;3.63;;
12052;SDS011;6087;48.982;12.064;2023-02-05T11:40:15;3.57;;;3.27;;
12052;SDS011;6087;48.982;12.064;2023-02-05T11:42:51;3.10;;;2.80;;
12052;SDS011;6087;48.982;12.064;2023-02-05T11:45:24;3.70;;;3.37;;
12052;SDS011;6087;48.982;12.064;2023-02-05T11:47:53;4.53;;;3.30;;
12052;SDS011;6087;48.982;12.064;2023-02-05T11:50:22;3.10;;;2.80;;
12052;SDS011;6087;48.982;12.064;2023-02-05T11:52:50;3.53;;;3.23;;
12052;SDS011;6087;48.982;12.064;2023-02-05T11:55:22;3.73;;;3.43;;
12052;SDS011;6087;48.982;12.064;2023-02-05T11:57:56;3.63;;;3.03;;
12052;SDS011;6087;48.982;12.064;2023-02-05T12:00:26;3.83;;;3.43;;
12052;SDS011;6087;48.982;12.064;2023-02-05T12:03:14;3.10;;;2.80;;
12052;SDS011;6087;48.982;12.064;2023-02-05T12:05:43;4.73;;;3.20;;
12052;SDS011;6087;48.982;12.064;2023-02-05T12:08:18;6.63;;;3.63;;
12052;SDS011;6087;48.982;12.064;2023-02-05T12:10:56;3.83;;;3.27;;
12052;SDS011;6087;48.982;12.064;2023-02-05T12:13:39;3.33;;;3.03;;
12052;SDS011;6087;48.982;12.064;2023-02-05T12:16:14;3.40;;;3.10;;
12052;SDS011;6087;48.982;12.064;2023-02-05T12:18:49;5.73;;;3.70;;
12052;SDS011;6087;48.982;12.064;2023-02-05T12:21:26;3.60;;;3.10;;
12052;SDS011;6087;48.982;12.064;2023-02-05T12:24:14;4.70;;;3.27;;
12052;SDS011;6087;48.982;12.064;2023-02-05T12:26:56;4.43;;;3.30;;
12052;SDS011;6087;48.982;12.064;2023-02-05T12:29:39;3.90;;;2.87;;
12052;SDS011;6087;48.982;12.064;2023-02-05T12:32:20;3.40;;;3.10;;
12052;SDS011;6087;48.982;12.064;2023-02-05T12:35:07;3.43;;;3.10;;
12052;SDS011;6087;48.982;12.064;2023-02-05T12:37:54;4.50;;;3.20;;
12052;SDS011;6087;48.982;12.064;2023-02-05T12:40:33;4.00;;;2.97;;
12052;SDS011;6087;48.982;12.064;2023-02-05T12:43:11;5.20;;;3.50;;
12052;SDS011;6087;48.982;12.064;2023-02-05T12:45:54;4.00;;;3.47;;
12052;SDS011;6087;48.982;12.064;2023-02-05T12:48:33;4.00;;;3.57;;
12052;SDS011;6087;48.982;12.064;2023-02-05T12:51:17;3.83;;;3.53;;
12052;SDS011;6087;48.982;12.064;2023-02-05T12:54:02;5.13;;;3.60;;
12052;SDS011;6087;48.982;12.064;2023-02-05T12:56:45;3.77;;;3.37;;
12052;SDS011;6087;48.982;12.064;2023-02-05T12:59:24;4.87;;;3.37;;
12052;SDS011;6087;48.982;12.064;2023-02-05T13:02:05;4.63;;;3.67;;
12052;SDS011;6087;48.982;12.064;2023-02-05T13:04:42;3.57;;;3.27;;
12052;SDS011;6087;48.982;12.064;2023-02-05T13:07:18;3.30;;;3.00;;
12052;SDS011;6087;48.982;12.064;2023-02-05T13:09:54;4.30;;;3.20;;
12052;SDS011;6087;48.982;12.064;2023-02-05T13:12:25;6.17;;;3.67;;
12052;SDS011;6087;48.982;12.064;2023-02-05T13:14:56;5.90;;;3.40;;
12052;SDS011;6087;48.982;12.064;2023-02-05T13:17:30;3.73;;;3.43;;
12052;SDS011;6087;48.982;12.064;2023-02-05T13:20:02;3.57;;;3.27;;
12052;SDS011;6087;48.982;12.064;2023-02-05T13:22:33;4.53;;;4.13;;
12052;SDS011;6087;48.982;12.064;2023-02-05T13:25:23;3.80;;;3.33;;
12052;SDS011;6087;48.982;12.064;2023-02-05T13:28:27;3.93;;;3.53;;
12052;SDS011;6087;48.982;12.064;2023-02-05T13:31:08;4.90;;;3.70;;
12052;SDS011;6087;48.982;12.064;2023-02-05T13:33:41;3.93;;;3.37;;
12052;SDS011;6087;48.982;12.064;2023-02-05T13:36:16;4.43;;;3.97;;
12052;SDS011;6087;48.982;12.064;2023-02-05T13:39:15;3.63;;;3.33;;
12052;SDS011;6087;48.982;12.064;2023-02-05T13:41:56;3.87;;;3.50;;
12052;SDS011;6087;48.982;12.064;2023-02-05T13:44:49;4.03;;;3.33;;
12052;SDS011;6087;48.982;12.064;2023-02-05T13:47:34;4.80;;;3.03;;
12052;SDS011;6087;48.982;12.064;2023-02-05T13:53:30;3.77;;;3.13;;
12052;SDS011;6087;48.982;12.064;2023-02-05T13:56:16;3.80;;;3.50;;
12052;SDS011;6087;48.982;12.064;2023-02-05T13:59:02;3.87;;;3.10;;
12052;SDS011;6087;48.982;12.064;2023-02-05T14:01:34;4.37;;;3.23;;
12052;SDS011;6087;48.982;12.064;2023-02-05T14:04:17;3.23;;;2.93;;
12052;SDS011;6087;48.982;12.064;2023-02-05T14:06:49;4.33;;;3.60;;
12052;SDS011;6087;48.982;12.064;2023-02-05T14:09:23;3.50;;;3.13;;
12052;SDS011;6087;48.982;12.064;2023-02-05T14:12:03;3.47;;;3.13;;
12052;SDS011;6087;48.982;12.064;2023-02-05T14:14:34;4.57;;;3.17;;
12052;SDS011;6087;48.982;12.064;2023-02-05T14:17:02;4.10;;;3.13;;
12052;SDS011;6087;48.982;12.064;2023-02-05T14:23:02;3.63;;;3.10;;
12052;SDS011;6087;48.982;12.064;2023-02-05T14:28:43;3.90;;;3.37;;
12052;SDS011;6087;48.982;12.064;2023-02-05T14:34:43;4.60;;;3.73;;
12052;SDS011;6087;48.982;12.064;2023-02-05T14:37:24;7.83;;;3.33;;
12052;SDS011;6087;48.982;12.064;2023-02-05T14:40:10;4.23;;;3.47;;
12052;SDS011;6087;48.982;12.064;2023-02-05T14:42:40;3.27;;;3.00;;
12052;SDS011;6087;48.982;12.064;2023-02-05T14:45:12;3.70;;;3.40;;
12052;SDS011;6087;48.982;12.064;2023-02-05T14:47:41;3.23;;;2.93;;
12052;SDS011;6087;48.982;12.064;2023-02-05T14:50:10;5.07;;;3.70;;
12052;SDS011;6087;48.982;12.064;2023-02-05T14:52:46;3.50;;;3.10;;
12052;SDS011;6087;48.982;12.064;2023-02-05T14:55:17;3.87;;;3.20;;
12052;SDS011;6087;48.982;12.064;2023-02-05T14:57:47;4.13;;;3.50;;
12052;SDS011;6087;48.982;12.064;2023-02-05T15:00:28;4.17;;;3.77;;
12052;SDS011;6087;48.982;12.064;2023-02-05T15:06:03;3.20;;;2.90;;
12052;SDS011;6087;48.982;12.064;2023-02-05T15:08:38;3.67;;;3.37;;
12052;SDS011;6087;48.982;12.064;2023-02-05T15:11:14;3.90;;;3.50;;
12052;SDS011;6087;48.982;12.064;2023-02-05T15:20:04;3.87;;;3.10;;
12052;SDS011;6087;48.982;12.064;2023-02-05T15:22:47;3.83;;;3.40;;
12052;SDS011;6087;48.982;12.064;2023-02-05T15:25:27;3.73;;;3.43;;
12052;SDS011;6087;48.982;12.064;2023-02-05T15:27:58;4.50;;;3.23;;
12052;SDS011;6087;48.982;12.064;2023-02-05T15:30:30;3.40;;;3.10;;
12052;SDS011;6087;48.982;12.064;2023-02-05T15:33:06;3.60;;;3.00;;
12052;SDS011;6087;48.982;12.064;2023-02-05T15:35:39;3.37;;;3.00;;
12052;SDS011;6087;48.982;12.064;2023-02-05T15:38:15;3.47;;;3.17;;
12052;SDS011;6087;48.982;12.064;2023-02-05T15:40:50;4.30;;;3.20;;
12052;SDS011;6087;48.982;12.064;2023-02-05T15:43:20;3.80;;;3.37;;
12052;SDS011;6087;48.982;12.064;2023-02-05T15:45:48;3.93;;;2.90;;